createdAt,value
2019-02-09T00:01:41.355Z,73.83
2019-02-09T00:04:11.451Z,73.43
2019-02-09T00:06:45.760Z,73.24
2019-02-09T00:09:14.850Z,73.01
2019-02-09T00:11:43.983Z,72.81
2019-02-09T00:14:14.708Z,73.05
2019-02-09T00:16:46.807Z,72.44
2019-02-09T00:19:15.950Z,72.40
2019-02-09T00:21:47.420Z,72.01
2019-02-09T00:24:16.624Z,71.88
2019-02-09T00:26:49.011Z,72.84
2019-02-09T00:29:18.171Z,74.65
2019-02-09T00:31:47.478Z,74.96
2019-02-09T00:34:17.925Z,75.34
2019-02-09T00:36:48.420Z,76.14
2019-02-09T00:39:17.507Z,77.33
2019-02-09T00:41:46.649Z,78.78
2019-02-09T00:44:15.862Z,79.37
2019-02-09T00:46:45.260Z,80.96
2019-02-09T00:49:14.445Z,83.17
2019-02-09T00:51:43.761Z,84.82
2019-02-09T00:54:12.822Z,84.69
2019-02-09T00:56:42.183Z,86.11
2019-02-09T00:59:11.290Z,86.60
2019-02-09T01:01:40.391Z,87.44
2019-02-09T01:04:09.515Z,88.50
2019-02-09T01:06:38.604Z,88.57
2019-02-09T01:09:12.079Z,89.38
2019-02-09T01:11:41.183Z,89.78
2019-02-09T01:14:10.244Z,90.46
2019-02-09T01:16:39.346Z,89.95
2019-02-09T01:19:08.484Z,90.89
2019-02-09T01:21:37.538Z,90.37
2019-02-09T01:24:21.051Z,89.60
2019-02-09T01:26:45.564Z,90.69
2019-02-09T01:29:14.698Z,91.61
2019-02-09T01:31:45.570Z,91.89
2019-02-09T01:34:17.186Z,90.89
2019-02-09T01:36:47.490Z,90.82
2019-02-09T01:39:16.565Z,91.51
2019-02-09T01:41:45.637Z,91.83
2019-02-09T01:44:14.690Z,92.14
2019-02-09T01:46:43.798Z,92.71
2019-02-09T01:49:12.926Z,92.50
2019-02-09T01:51:41.964Z,93.42
2019-02-09T01:54:11.056Z,92.77
2019-02-09T01:56:41.628Z,93.81
2019-02-09T01:59:10.739Z,93.45
2019-02-09T02:01:39.759Z,93.82
2019-02-09T02:04:08.864Z,93.31
2019-02-09T02:06:37.893Z,94.59
2019-02-09T02:09:08.684Z,94.70
2019-02-09T02:11:37.770Z,95.30
2019-02-09T02:14:06.857Z,95.24
2019-02-09T02:16:35.910Z,95.22
2019-02-09T02:19:07.085Z,96.01
2019-02-09T02:21:36.164Z,95.72
2019-02-09T02:24:05.242Z,96.47
2019-02-09T02:26:34.334Z,96.28
2019-02-09T02:29:03.422Z,96.12
2019-02-09T02:31:32.452Z,95.79
2019-02-09T02:34:01.564Z,94.82
2019-02-09T02:36:30.670Z,95.08
2019-02-09T02:38:59.739Z,95.68
2019-02-09T02:41:28.810Z,94.59
2019-02-09T02:43:57.964Z,95.26
2019-02-09T02:46:27.038Z,95.45
2019-02-09T02:48:56.161Z,94.90
2019-02-09T02:51:25.232Z,96.35
2019-02-09T02:53:54.361Z,95.95
2019-02-09T02:56:23.391Z,96.01
2019-02-09T02:58:53.524Z,96.42
2019-02-09T03:01:22.620Z,95.88
2019-02-09T03:03:51.682Z,96.63
2019-02-09T03:06:22.373Z,96.91
2019-02-09T03:08:51.413Z,96.98
2019-02-09T03:11:20.498Z,96.14
2019-02-09T03:13:49.536Z,96.25
2019-02-09T03:16:18.652Z,95.87
2019-02-09T03:18:47.773Z,95.99
2019-02-09T03:21:16.878Z,96.19
2019-02-09T03:23:45.930Z,95.99
2019-02-09T03:26:15.080Z,96.78
2019-02-09T03:28:44.117Z,96.49
2019-02-09T03:31:13.311Z,96.09
2019-02-09T03:33:42.392Z,95.70
2019-02-09T03:36:11.454Z,95.46
2019-02-09T03:38:40.566Z,94.52
2019-02-09T03:41:10.108Z,94.40
2019-02-09T03:43:39.216Z,94.73
2019-02-09T03:46:08.649Z,94.54
2019-02-09T03:48:37.738Z,94.94
2019-02-09T03:51:06.848Z,94.87
2019-02-09T03:53:35.915Z,94.50
2019-02-09T03:56:05.098Z,94.15
2019-02-09T03:58:34.207Z,93.94
2019-02-09T04:01:03.325Z,93.60
2019-02-09T04:03:32.422Z,94.10
2019-02-09T04:06:01.495Z,93.71
2019-02-09T04:08:30.636Z,92.86
2019-02-09T04:10:59.770Z,92.78
2019-02-09T04:13:28.810Z,93.36
2019-02-09T04:15:57.993Z,93.03
2019-02-09T04:18:27.062Z,94.00
2019-02-09T04:20:56.111Z,94.48
2019-02-09T04:23:25.268Z,95.57
2019-02-09T04:25:54.394Z,96.05
2019-02-09T04:28:23.471Z,96.26
2019-02-09T04:31:05.512Z,97.14
2019-02-09T04:33:27.197Z,97.63
2019-02-09T04:35:57.871Z,97.99
2019-02-09T04:38:28.001Z,98.60
2019-02-09T04:40:57.094Z,97.24
2019-02-09T04:43:27.199Z,95.51
2019-02-09T04:45:56.236Z,95.67
2019-02-09T04:48:25.296Z,94.97
2019-02-09T04:50:54.382Z,94.78
2019-02-09T04:53:23.482Z,95.45
2019-02-09T04:55:52.624Z,95.28
2019-02-09T04:58:21.739Z,95.42
2019-02-09T05:00:50.834Z,95.07
2019-02-09T05:03:19.961Z,94.05
2019-02-09T05:05:49.002Z,94.54
2019-02-09T05:08:18.129Z,95.14
2019-02-09T05:10:47.212Z,95.17
2019-02-09T05:13:18.310Z,95.90
2019-02-09T05:15:48.695Z,95.30
2019-02-09T05:18:17.780Z,96.38
2019-02-09T05:20:46.881Z,96.59
2019-02-09T05:23:16.003Z,96.86
2019-02-09T05:25:48.626Z,96.50
2019-02-09T05:28:17.739Z,96.27
2019-02-09T05:30:46.795Z,97.26
2019-02-09T05:33:17.956Z,97.60
2019-02-09T05:35:47.091Z,97.33
2019-02-09T05:38:16.193Z,97.98
2019-02-09T05:40:45.221Z,98.03
2019-02-09T05:43:14.305Z,97.98
2019-02-09T05:45:43.639Z,97.79
2019-02-09T05:48:12.973Z,97.79
2019-02-09T05:50:42.037Z,97.22
2019-02-09T05:53:11.109Z,96.84
2019-02-09T05:55:40.184Z,97.09
2019-02-09T05:58:09.285Z,97.77
2019-02-09T06:00:41.056Z,98.26
2019-02-09T06:03:10.161Z,97.45
2019-02-09T06:05:39.239Z,97.79
2019-02-09T06:08:08.298Z,98.22
2019-02-09T06:10:37.444Z,97.88
2019-02-09T06:13:06.530Z,97.71
2019-02-09T06:15:35.652Z,98.53
2019-02-09T06:18:04.723Z,98.25
2019-02-09T06:20:33.850Z,97.88
2019-02-09T06:23:02.891Z,97.78
2019-02-09T06:25:32.050Z,98.20
2019-02-09T06:28:01.107Z,97.27
2019-02-09T06:30:30.673Z,97.79
2019-02-09T06:32:59.710Z,98.50
2019-02-09T06:35:30.532Z,98.16
2019-02-09T06:38:00.062Z,99.15
2019-02-09T06:40:29.220Z,98.73
2019-02-09T06:42:59.382Z,98.94
2019-02-09T06:45:30.463Z,98.61
2019-02-09T06:48:18.389Z,98.96
2019-02-09T06:50:47.464Z,98.51
2019-02-09T06:53:16.531Z,98.01
2019-02-09T06:55:45.653Z,97.46
2019-02-09T06:58:14.702Z,96.95
2019-02-09T07:00:58.711Z,96.62
2019-02-09T07:03:27.851Z,96.16
2019-02-09T07:05:58.103Z,95.33
2019-02-09T07:08:31.159Z,95.69
2019-02-09T07:11:00.288Z,95.16
2019-02-09T07:13:40.093Z,94.48
2019-02-09T07:16:09.194Z,93.61
2019-02-09T07:18:39.341Z,93.39
2019-02-09T07:21:08.400Z,92.66
2019-02-09T07:23:37.490Z,92.72
2019-02-09T07:26:06.611Z,92.14
2019-02-09T07:28:35.638Z,90.81
2019-02-09T07:31:04.882Z,90.32
2019-02-09T07:33:33.933Z,90.14
2019-02-09T07:36:03.033Z,89.49
2019-02-09T07:38:33.936Z,88.42
2019-02-09T07:41:03.122Z,87.25
2019-02-09T07:43:32.266Z,87.80
2019-02-09T07:46:01.398Z,87.07
2019-02-09T07:48:30.461Z,86.55
2019-02-09T07:50:59.552Z,87.22
2019-02-09T07:53:28.899Z,86.92
2019-02-09T07:55:58.026Z,86.64
2019-02-09T07:58:29.740Z,87.20
2019-02-09T08:00:58.864Z,87.53
2019-02-09T08:03:27.956Z,87.63
2019-02-09T08:06:00.739Z,88.44
2019-02-09T08:08:32.590Z,87.45
2019-02-09T08:11:08.792Z,87.66
2019-02-09T08:13:35.741Z,89.29
2019-02-09T08:16:04.849Z,89.37
2019-02-09T08:18:43.201Z,90.04
2019-02-09T08:21:12.296Z,90.51
2019-02-09T08:23:41.363Z,91.78
2019-02-09T08:26:10.518Z,92.44
2019-02-09T08:28:39.595Z,92.50
2019-02-09T08:31:08.776Z,93.13
2019-02-09T08:33:37.828Z,93.03
2019-02-09T08:36:06.913Z,92.99
2019-02-09T08:38:35.996Z,92.25
2019-02-09T08:41:05.070Z,91.53
2019-02-09T08:43:34.184Z,92.39
2019-02-09T08:46:03.279Z,92.67
2019-02-09T08:48:34.405Z,92.82
2019-02-09T08:51:07.312Z,93.50
2019-02-09T08:53:36.375Z,93.09
2019-02-09T08:56:05.615Z,93.72
2019-02-09T08:58:34.741Z,93.48
2019-02-09T09:01:03.826Z,92.57
2019-02-09T09:03:32.927Z,94.36
2019-02-09T09:06:04.276Z,94.39
2019-02-09T09:08:33.813Z,93.56
2019-02-09T09:11:02.890Z,93.10
2019-02-09T09:13:33.313Z,94.34
2019-02-09T09:16:05.739Z,94.33
2019-02-09T09:18:36.115Z,94.28
2019-02-09T09:21:05.418Z,94.68
2019-02-09T09:23:34.542Z,91.94
2019-02-09T09:26:03.617Z,92.29
2019-02-09T09:28:32.814Z,93.69
2019-02-09T09:31:04.141Z,92.87
2019-02-09T09:33:34.869Z,92.46
2019-02-09T09:36:04.016Z,92.29
2019-02-09T09:38:34.583Z,92.24
2019-02-09T09:41:03.713Z,91.97
2019-02-09T09:43:34.095Z,91.17
2019-02-09T09:46:03.228Z,92.79
2019-02-09T09:48:32.370Z,90.91
2019-02-09T09:51:01.456Z,90.44
2019-02-09T09:53:30.588Z,91.57
2019-02-09T09:56:00.042Z,92.86
2019-02-09T09:58:31.390Z,93.46
2019-02-09T10:01:00.439Z,92.44
2019-02-09T10:03:29.605Z,92.62
2019-02-09T10:05:58.646Z,92.25
2019-02-09T10:08:27.791Z,92.49
2019-02-09T10:10:58.686Z,93.80
2019-02-09T10:13:27.761Z,93.25
2019-02-09T10:15:57.913Z,90.91
2019-02-09T10:18:27.001Z,90.47
2019-02-09T10:20:57.265Z,90.47
2019-02-09T10:23:26.377Z,91.92
2019-02-09T10:25:56.775Z,92.70
2019-02-09T10:28:26.035Z,94.03
2019-02-09T10:31:01.604Z,93.45
2019-02-09T10:33:36.931Z,92.98
2019-02-09T10:36:14.853Z,91.01
2019-02-09T10:38:47.740Z,92.49
2019-02-09T10:41:16.823Z,93.29
2019-02-09T10:43:45.882Z,93.07
2019-02-09T10:46:15.018Z,93.00
2019-02-09T10:48:49.343Z,92.58
2019-02-09T10:51:18.992Z,93.53
2019-02-09T10:53:49.745Z,91.82
2019-02-09T10:56:20.255Z,91.43
2019-02-09T10:58:50.565Z,92.75
2019-02-09T11:01:21.739Z,92.09
2019-02-09T11:03:51.043Z,93.23
2019-02-09T11:06:20.135Z,94.19
2019-02-09T11:08:49.282Z,94.57
2019-02-09T11:11:18.382Z,93.00
2019-02-09T11:13:48.587Z,92.45
2019-02-09T11:16:23.188Z,93.19
2019-02-09T11:18:53.819Z,91.64
2019-02-09T11:21:26.485Z,89.75
2019-02-09T11:23:55.507Z,89.05
2019-02-09T11:26:26.831Z,90.88
2019-02-09T11:28:55.908Z,90.44
2019-02-09T11:31:25.037Z,91.64
2019-02-09T11:33:54.229Z,93.38
2019-02-09T11:36:25.330Z,93.19
2019-02-09T11:38:54.341Z,91.18
2019-02-09T11:41:23.455Z,89.66
2019-02-09T11:43:52.498Z,88.77
2019-02-09T11:46:21.612Z,88.85
2019-02-09T11:48:50.666Z,87.78
2019-02-09T11:51:22.010Z,86.97
2019-02-09T11:53:51.064Z,86.54
2019-02-09T11:56:20.271Z,84.83
2019-02-09T11:58:49.645Z,85.65
2019-02-09T12:01:18.827Z,87.53
2019-02-09T12:03:51.094Z,88.00
2019-02-09T12:06:21.513Z,87.55
2019-02-09T12:08:50.989Z,88.62
2019-02-09T12:11:20.656Z,87.63
2019-02-09T12:13:55.217Z,89.52
2019-02-09T12:16:21.725Z,87.67
2019-02-09T12:18:52.547Z,86.75
2019-02-09T12:21:21.855Z,86.91
2019-02-09T12:23:51.592Z,88.84
2019-02-09T12:26:22.560Z,90.07
2019-02-09T12:28:52.600Z,90.07
2019-02-09T12:31:25.369Z,90.70
2019-02-09T12:33:57.054Z,89.48
2019-02-09T12:36:26.531Z,88.97
2019-02-09T12:38:59.714Z,88.83
2019-02-09T12:41:29.227Z,89.47
2019-02-09T12:44:01.522Z,89.27
2019-02-09T12:46:32.418Z,89.29
2019-02-09T12:49:02.063Z,88.07
2019-02-09T12:51:31.695Z,88.86
2019-02-09T12:54:01.130Z,87.33
2019-02-09T12:56:30.430Z,86.68
2019-02-09T12:59:03.829Z,85.39
2019-02-09T13:01:39.903Z,85.63
2019-02-09T13:04:09.612Z,85.61
2019-02-09T13:06:40.748Z,85.81
2019-02-09T13:09:10.174Z,85.12
2019-02-09T13:11:39.411Z,84.42
2019-02-09T13:14:10.846Z,85.00
2019-02-09T13:16:41.666Z,84.19
2019-02-09T13:19:10.774Z,83.43
2019-02-09T13:21:41.498Z,84.13
2019-02-09T13:24:10.678Z,84.70
2019-02-09T13:26:40.109Z,85.54
2019-02-09T13:29:09.307Z,86.64
2019-02-09T13:31:38.707Z,87.05
2019-02-09T13:34:11.039Z,87.31
2019-02-09T13:36:41.934Z,85.87
2019-02-09T13:39:11.485Z,86.63
2019-02-09T13:41:43.189Z,85.09
2019-02-09T13:44:12.937Z,85.87
2019-02-09T13:46:43.775Z,86.19
2019-02-09T13:49:15.035Z,84.84
2019-02-09T13:51:44.508Z,83.07
2019-02-09T13:54:16.141Z,83.48
2019-02-09T13:56:48.559Z,84.13
2019-02-09T13:59:22.770Z,82.15
2019-02-09T14:01:52.271Z,82.46
2019-02-09T14:04:29.203Z,81.38
2019-02-09T14:06:59.879Z,82.19
2019-02-09T14:09:29.409Z,81.63
2019-02-09T14:11:58.479Z,80.13
2019-02-09T14:14:29.931Z,81.00
2019-02-09T14:17:00.896Z,81.26
2019-02-09T14:19:39.326Z,80.32
2019-02-09T14:22:11.639Z,80.32
2019-02-09T14:24:47.711Z,80.07
2019-02-09T14:27:20.159Z,80.35
2019-02-09T14:29:51.101Z,81.36
2019-02-09T14:32:24.192Z,81.12
2019-02-09T14:34:56.720Z,80.79
2019-02-09T14:37:44.563Z,80.94
2019-02-09T14:40:22.340Z,79.68
2019-02-09T14:42:55.195Z,79.58
2019-02-09T14:45:27.732Z,79.77
2019-02-09T14:47:58.034Z,79.52
2019-02-09T14:50:30.814Z,78.28
2019-02-09T14:53:02.434Z,79.04
2019-02-09T14:55:44.359Z,79.69
2019-02-09T14:58:16.893Z,79.30
2019-02-09T15:00:50.683Z,81.70
2019-02-09T15:03:28.156Z,81.32
2019-02-09T15:05:56.032Z,81.81
2019-02-09T15:08:28.690Z,81.04
2019-02-09T15:11:19.466Z,81.59
2019-02-09T15:14:07.461Z,80.43
2019-02-09T15:16:48.023Z,82.38
2019-02-09T15:19:18.369Z,82.72
2019-02-09T15:21:49.005Z,80.40
2019-02-09T15:24:21.547Z,79.58
2019-02-09T15:26:50.820Z,78.02
2019-02-09T15:29:20.281Z,78.15
2019-02-09T15:31:54.575Z,77.63
2019-02-09T15:34:23.844Z,77.33
2019-02-09T15:36:52.964Z,76.71
2019-02-09T15:39:22.079Z,75.65
2019-02-09T15:41:51.269Z,75.48
2019-02-09T15:44:20.411Z,74.62
2019-02-09T15:46:52.144Z,73.60
2019-02-09T15:49:23.340Z,74.41
2019-02-09T15:51:53.599Z,73.71
2019-02-09T15:54:23.002Z,73.84
2019-02-09T15:56:54.283Z,73.77
2019-02-09T15:59:26.216Z,74.04
2019-02-09T16:01:55.383Z,74.40
2019-02-09T16:04:24.669Z,74.14
2019-02-09T16:06:58.106Z,75.06
2019-02-09T16:09:28.644Z,76.36
2019-02-09T16:12:00.799Z,75.86
2019-02-09T16:14:31.166Z,76.02
2019-02-09T16:17:00.339Z,76.53
2019-02-09T16:19:31.031Z,78.40
2019-02-09T16:22:01.074Z,80.40
2019-02-09T16:24:31.061Z,83.58
2019-02-09T16:27:00.816Z,86.63
2019-02-09T16:29:31.312Z,87.89
2019-02-09T16:32:00.599Z,90.24
2019-02-09T16:34:32.427Z,90.80
2019-02-09T16:37:01.509Z,90.12
2019-02-09T16:39:31.926Z,89.67
2019-02-09T16:42:01.023Z,89.39
2019-02-09T16:44:30.161Z,90.26
2019-02-09T16:46:59.333Z,90.20
2019-02-09T16:49:28.630Z,90.49
2019-02-09T16:51:57.772Z,90.39
2019-02-09T16:54:26.960Z,90.62
2019-02-09T16:56:56.049Z,91.30
2019-02-09T16:59:26.941Z,91.38
2019-02-09T17:01:56.082Z,91.12
2019-02-09T17:04:25.180Z,91.10
2019-02-09T17:06:54.314Z,90.93
2019-02-09T17:09:23.425Z,90.11
2019-02-09T17:11:54.871Z,90.68
2019-02-09T17:14:23.922Z,90.27
2019-02-09T17:16:53.017Z,89.76
2019-02-09T17:19:24.411Z,90.17
2019-02-09T17:21:53.513Z,89.81
2019-02-09T17:24:22.640Z,90.06
2019-02-09T17:26:52.738Z,89.16
2019-02-09T17:29:21.886Z,89.56
2019-02-09T17:31:50.941Z,90.16
2019-02-09T17:34:21.856Z,89.23
2019-02-09T17:36:51.067Z,89.18
2019-02-09T17:39:20.215Z,89.80
2019-02-09T17:41:51.384Z,90.08
2019-02-09T17:44:20.524Z,90.58
2019-02-09T17:46:49.549Z,90.68
2019-02-09T17:49:18.705Z,90.61
2019-02-09T17:51:47.753Z,90.97
2019-02-09T17:54:16.857Z,90.43
2019-02-09T17:56:45.955Z,90.68
2019-02-09T17:59:15.125Z,90.35
2019-02-09T18:01:44.180Z,90.76
2019-02-09T18:04:16.883Z,90.53
2019-02-09T18:06:48.348Z,91.24
2019-02-09T18:09:18.763Z,91.35
2019-02-09T18:11:47.854Z,91.11
2019-02-09T18:14:17.501Z,90.48
2019-02-09T18:16:46.702Z,90.42
2019-02-09T18:19:15.854Z,91.44
2019-02-09T18:21:44.905Z,89.30
2019-02-09T18:24:14.063Z,89.67
2019-02-09T18:26:43.148Z,90.33
2019-02-09T18:29:12.462Z,90.97
2019-02-09T18:31:41.558Z,91.58
2019-02-09T18:34:10.774Z,91.20
2019-02-09T18:36:39.907Z,90.33
2019-02-09T18:39:12.804Z,91.41
2019-02-09T18:41:41.923Z,92.29
2019-02-09T18:44:11.194Z,92.68
2019-02-09T18:46:42.589Z,92.44
2019-02-09T18:49:13.062Z,92.55
2019-02-09T18:51:45.974Z,92.74
2019-02-09T18:54:20.567Z,92.54
2019-02-09T18:56:49.697Z,94.00
2019-02-09T18:59:20.224Z,94.17
2019-02-09T19:01:49.336Z,94.81
2019-02-09T19:04:18.533Z,95.58
2019-02-09T19:06:47.636Z,95.21
2019-02-09T19:09:17.840Z,94.28
2019-02-09T19:11:46.888Z,94.82
2019-02-09T19:14:16.014Z,94.89
2019-02-09T19:16:45.109Z,95.02
2019-02-09T19:19:14.180Z,94.71
2019-02-09T19:21:43.352Z,94.90
2019-02-09T19:24:13.359Z,95.59
2019-02-09T19:26:43.120Z,95.82
2019-02-09T19:29:12.234Z,95.83
2019-02-09T19:31:41.309Z,96.22
2019-02-09T19:34:12.374Z,96.61
2019-02-09T19:36:42.545Z,96.91
2019-02-09T19:39:11.760Z,96.21
2019-02-09T19:41:40.952Z,96.03
2019-02-09T19:44:10.188Z,96.50
2019-02-09T19:46:41.769Z,96.87
2019-02-09T19:49:10.828Z,97.09
2019-02-09T19:51:39.914Z,97.17
2019-02-09T19:54:10.749Z,97.79
2019-02-09T19:56:39.857Z,97.80
2019-02-09T19:59:08.950Z,98.07
2019-02-09T20:01:38.098Z,97.88
2019-02-09T20:04:07.229Z,97.47
2019-02-09T20:06:36.387Z,96.74
2019-02-09T20:09:08.061Z,96.62
2019-02-09T20:11:37.252Z,96.60
2019-02-09T20:14:06.507Z,96.82
2019-02-09T20:16:35.737Z,96.88
2019-02-09T20:19:04.808Z,96.72
2019-02-09T20:21:33.936Z,97.82
2019-02-09T20:24:03.004Z,97.61
2019-02-09T20:26:34.146Z,98.53
2019-02-09T20:29:03.247Z,97.87
2019-02-09T20:31:33.481Z,97.70
2019-02-09T20:34:02.581Z,98.76
2019-02-09T20:36:31.670Z,98.92
2019-02-09T20:39:04.698Z,99.79
2019-02-09T20:41:31.630Z,99.60
2019-02-09T20:44:00.698Z,100.00
2019-02-09T20:46:29.872Z,100.00
2019-02-09T20:49:00.640Z,99.53
2019-02-09T20:51:29.771Z,98.94
2019-02-09T20:53:58.864Z,99.10
2019-02-09T20:56:30.233Z,99.26
2019-02-09T20:59:00.353Z,99.18
2019-02-09T21:01:29.509Z,98.71
2019-02-09T21:04:00.622Z,99.32
2019-02-09T21:06:29.760Z,98.39
2019-02-09T21:08:58.826Z,99.16
2019-02-09T21:11:30.214Z,98.97
2019-02-09T21:13:59.301Z,99.04
2019-02-09T21:16:28.378Z,99.46
2019-02-09T21:18:57.629Z,98.98
2019-02-09T21:21:26.804Z,98.67
2019-02-09T21:23:55.947Z,98.69
2019-02-09T21:26:25.052Z,98.56
2019-02-09T21:28:54.069Z,98.68
2019-02-09T21:31:23.214Z,98.26
2019-02-09T21:33:52.300Z,98.68
2019-02-09T21:36:21.428Z,98.80
2019-02-09T21:38:50.568Z,98.32
2019-02-09T21:41:19.632Z,99.07
2019-02-09T21:43:48.765Z,98.28
2019-02-09T21:46:17.874Z,98.62
2019-02-09T21:48:48.000Z,98.48
2019-02-09T21:51:17.094Z,98.27
2019-02-09T21:53:46.195Z,98.74
2019-02-09T21:56:16.435Z,98.34
2019-02-09T21:58:47.123Z,98.75
2019-02-09T22:01:16.154Z,98.43
2019-02-09T22:03:45.345Z,98.26
2019-02-09T22:06:14.455Z,97.94
2019-02-09T22:08:43.587Z,97.46
2019-02-09T22:11:12.819Z,98.41
2019-02-09T22:13:41.967Z,97.58
2019-02-09T22:16:11.175Z,97.70
2019-02-09T22:18:40.455Z,97.70
2019-02-09T22:21:09.740Z,97.31
2019-02-09T22:23:38.926Z,97.25
2019-02-09T22:26:13.086Z,97.72
2019-02-09T22:28:38.825Z,97.98
2019-02-09T22:31:08.026Z,97.40
2019-02-09T22:33:37.086Z,98.08
2019-02-09T22:36:09.625Z,97.92
2019-02-09T22:38:38.789Z,97.32
2019-02-09T22:41:07.922Z,96.84
2019-02-09T22:43:37.108Z,97.10
2019-02-09T22:46:06.152Z,97.04
2019-02-09T22:48:35.287Z,96.59
2019-02-09T22:51:06.611Z,97.15
2019-02-09T22:53:35.683Z,96.63
2019-02-09T22:56:15.278Z,96.94
2019-02-09T22:58:54.032Z,96.96
2019-02-09T23:01:47.555Z,97.40
2019-02-09T23:04:45.604Z,97.83
2019-02-09T23:07:17.536Z,97.36
2019-02-09T23:09:47.531Z,96.91
2019-02-09T23:12:16.671Z,97.68
2019-02-09T23:14:45.826Z,98.27
2019-02-09T23:17:17.023Z,98.65
2019-02-09T23:19:46.171Z,98.84
2019-02-09T23:22:15.218Z,98.96
2019-02-09T23:24:44.314Z,98.50
2019-02-09T23:27:13.369Z,98.62
2019-02-09T23:29:42.511Z,98.12
2019-02-09T23:32:11.544Z,98.63
2019-02-09T23:34:40.655Z,99.34
2019-02-09T23:37:09.748Z,99.99
2019-02-09T23:39:38.878Z,99.33
2019-02-09T23:42:08.021Z,98.99
2019-02-09T23:44:38.382Z,98.89
2019-02-09T23:47:07.545Z,98.65
2019-02-09T23:49:36.625Z,98.63
2019-02-09T23:52:05.758Z,98.75
2019-02-09T23:54:34.793Z,98.34
2019-02-09T23:57:06.208Z,98.71
2019-02-09T23:59:36.330Z,97.96
